• Join FlightAware (Why Join?)
  • Login
  • US Flag 
08:18AM EDT


 

Airport Tracker/Info


-or-


 

Live Flight TrackerFlight Track Log ✈ RPA3275 ✈ 16-May-2013 ✈ KALB - KPHL

Flight Track Log - Related Links

Times and Time Zones

All times are in EDT time to prevent confusion due to time zone crossing. See the RPA3275 flight status page for this flight to view local times or setup timezone preferences in your user account.

Time Position Orientation Groundspeed Altitude Reporting Facility
EDT Latitude Longitude Course Direction KTS MPH feet Rate Location/Type
07:07AM 42.7714 -73.8119 220° Southwest 147 169 1,400  Level Boston Center
07:08AM 42.7936 -73.8661 299° West 205 236 3,400 2,100 Climbing Boston Center
07:09AM 42.7333 -74.1641 270° West  Level FlightAware Approximate
07:09AM 42.7861 -73.9594 264° West 245 282 6,200  Level Boston Center
07:10AM 42.7333 -74.2855 270° West  Level FlightAware Approximate
07:10AM 42.7767 -74.0467 262° West 250 288 9,300  Level Boston Center
07:11AM 42.6790 -74.3758 220° Southwest  Level FlightAware Approximate
07:11AM 42.7628 -74.1397 259° West 239 275 12,600  Level Boston Center
07:12AM 42.6103 -74.4530 220° Southwest  Level FlightAware Approximate
07:12AM 42.7531 -74.2328 262° West 239 275 14,600  Level Boston Center
07:13AM 42.7286 -74.3253 250° West 252 290 17,400 2,160 Climbing Boston Center
07:14AM 42.6692 -74.3914 219° Southwest 268 308 19,000 780 Climbing Boston Center
07:15AM 42.6056 -74.4597 218° Southwest 298 343 19,000  Level Boston Center
07:16AM 42.5397 -74.5281 217° Southwest 303 349 19,000  Level Boston Center
07:17AM 42.4781 -74.5936 218° Southwest 303 349 19,000  Level Boston Center
07:18AM 42.4119 -74.6644 218° Southwest 303 349 19,000  Level Boston Center
07:19AM 42.3503 -74.7269 217° Southwest 303 349 19,000  Level Boston Center
07:21AM 42.2169 -74.8703 219° Southwest 294 338 19,000  Level New York Center
07:22AM 42.1542 -74.9361 218° Southwest 299 344 19,000  Level New York Center
07:23AM 42.0869 -75.0103 219° Southwest 304 350 19,000  Level New York Center
07:24AM 42.0178 -75.0839 218° Southwest 299 344 19,000  Level New York Center
07:25AM 41.9511 -75.1464 215° Southwest 299 344 19,000 -60 Level New York Center
07:26AM 41.8800 -75.2058 212° Southwest 304 350 18,900 -720 Descending New York Center
07:27AM 41.8178 -75.2544 210° Southwest 304 350 17,700 -1,320 Descending New York Center
07:28AM 41.7492 -75.3111 212° Southwest 304 350 16,400 -1,500 Descending New York Center
07:29AM 41.6672 -75.3806 212° Southwest 320 368 14,700 -1,680 Descending New York Center
07:30AM 41.6242 -75.4744 238° Southwest 309 356 13,100 -1,380 Descending New York Center
07:31AM 41.5853 -75.5606 239° Southwest 304 350 12,000 -600 Descending New York Center
07:32AM 41.5439 -75.6519 239° Southwest 298 343 12,000  Level New York Center
07:33AM 41.4981 -75.7536 239° Southwest 298 343 12,000  Level New York Center
07:34AM 41.4233 -75.7953 203° Southwest 287 330 12,000 -300 Level New York Center
07:35AM 41.3342 -75.7417 156° South 276 318 11,400 -960 Descending New York Center
07:36AM 41.2458 -75.7131 166° South 308 354 10,100 -720 Descending New York Center
07:37AM 41.1658 -75.6825 164° South 334 384 10,000 -60 Descending New York Center
07:38AM 41.0775 -75.6511 165° South 334 384 10,000  Level New York Center
07:39AM 40.9808 -75.6194 166° South 334 384 10,000  Level New York Center
07:40AM 40.9028 -75.5919 165° South 334 384 10,000  Level New York Center
07:41AM 40.8167 -75.5611 165° South 334 384 10,000  Level New York Center
07:42AM 40.7181 -75.5242 164° South 334 384 10,000  Level New York Center
07:43AM 40.6317 -75.4964 166° South 334 384 10,000  Level New York Center
07:44AM 40.5433 -75.4656 165° South 328 377 10,000 -120 Level New York Center
07:45AM 40.4611 -75.4356 164° South 317 365 9,800 -540 Descending New York Center
07:46AM 40.3814 -75.3919 157° South 311 358 9,000 -1,260 Descending New York Center
07:47AM 40.3061 -75.3489 156° South 305 351 7,400 -1,140 Descending New York Center
07:48AM 40.2367 -75.3089 156° South 300 345 6,800 -720 Descending New York Center
07:49AM 40.1669 -75.2256 138° Southeast 300 345 6,000 -480 Descending New York Center
07:50AM 40.1094 -75.1458 133° Southeast 300 345 5,900 -900 Descending New York Center
07:51AM 40.0517 -75.0744 137° Southeast 294 338 4,300 -1,080 Descending New York Center
07:52AM 39.9833 -75.0500 165° South 232 267 3,700 -780 Descending Philadelphia TRACON
07:53AM 39.9167 -75.0333 169° South 187 215 2,700 -1,020 Descending Philadelphia TRACON